Time;durP1;ratioP1;P1;durP2;ratioP2;P2;SDS_P1;SDS_P2;PMS_P1;PMS_P2;Temp;Humidity;BMP_temperature;BMP_pressure;BME280_temperature;BME280_humidity;BME280_pressure;Samples;Min_cycle;Max_cycle;Signal;HPM_P1;HPM_P2
2022/09/07 00:00:14;;;;;;;2.00;1.90;;;;;;;20.83;54.21;100005.66;4995231;28;20736;-70
2022/09/07 00:02:40;;;;;;;2.30;1.80;;;;;;;20.84;54.09;100012.69;4995721;28;20194;-70
2022/09/07 00:05:08;;;;;;;4.17;1.80;;;;;;;20.83;54.60;100005.66;4995648;28;20222;-70
2022/09/07 00:07:35;;;;;;;1.80;1.50;;;;;;;20.82;54.83;100010.25;4995610;28;20199;-70
2022/09/07 00:10:01;;;;;;;2.10;2.00;;;;;;;20.79;55.25;100005.38;4995214;28;20749;-70
2022/09/07 00:12:28;;;;;;;3.53;2.03;;;;;;;20.75;55.24;100006.94;4995112;28;20191;-70
2022/09/07 00:14:55;;;;;;;3.10;1.80;;;;;;;20.72;54.52;100004.72;4995729;28;20198;-70
2022/09/07 00:17:23;;;;;;;1.83;1.73;;;;;;;20.70;54.50;100012.22;4995839;28;20245;-70
2022/09/07 00:19:50;;;;;;;2.00;1.90;;;;;;;20.67;55.04;100018.16;4995684;28;20619;-70
2022/09/07 00:22:16;;;;;;;2.00;1.80;;;;;;;20.65;55.08;100020.28;4995098;28;20199;-70
2022/09/07 00:24:43;;;;;;;4.33;1.63;;;;;;;20.62;54.84;100015.34;4995175;28;20226;-71
2022/09/07 00:27:10;;;;;;;2.80;2.10;;;;;;;20.58;55.88;100009.66;4995248;28;20296;-70
2022/09/07 00:29:37;;;;;;;2.10;2.00;;;;;;;20.49;56.04;100016.53;4994837;28;20201;-70
2022/09/07 00:32:04;;;;;;;3.70;2.07;;;;;;;20.40;56.82;100015.31;4995563;28;20194;-69
2022/09/07 00:34:32;;;;;;;2.00;1.90;;;;;;;20.34;57.38;100015.50;4995231;28;20199;-69
2022/09/07 00:36:58;;;;;;;2.60;2.00;;;;;;;20.26;58.15;100019.41;4995015;28;20198;-70
2022/09/07 00:39:25;;;;;;;5.13;1.80;;;;;;;20.18;57.96;100024.41;4994745;28;20205;-69
2022/09/07 00:41:52;;;;;;;2.20;2.00;;;;;;;20.06;57.78;100010.94;4994735;28;20662;-69
2022/09/07 00:44:56;;;;;;;6.00;2.00;;;;;;;20.10;58.24;100027.50;4994386;28;20261;-69
2022/09/07 00:47:27;;;;;;;1.90;1.80;;;;;;;20.07;58.39;100023.41;4994471;28;20186;-69
2022/09/07 00:49:59;;;;;;;2.53;2.00;;;;;;;20.03;58.56;100027.63;4994733;28;20194;-69
2022/09/07 00:52:31;;;;;;;3.17;1.70;;;;;;;20.01;58.49;100020.84;4994403;28;20245;-69
2022/09/07 00:55:01;;;;;;;1.93;1.60;;;;;;;19.97;58.73;100025.91;4994389;28;20749;-69
2022/09/07 00:57:28;;;;;;;3.33;1.80;;;;;;;19.91;59.32;100023.38;4994473;28;20241;-69
2022/09/07 00:59:57;;;;;;;5.20;1.97;;;;;;;19.87;59.50;100027.59;4994165;28;20667;-69
2022/09/07 01:02:25;;;;;;;1.90;1.80;;;;;;;19.83;59.58;100027.28;4994353;28;20577;-70
2022/09/07 01:05:01;;;;;;;3.07;1.80;;;;;;;19.83;59.40;100024.59;4994555;28;20233;-70
2022/09/07 01:07:27;;;;;;;3.10;1.93;;;;;;;19.85;59.23;100029.75;4993639;28;20195;-69
2022/09/07 01:09:55;;;;;;;2.33;1.90;;;;;;;19.84;58.83;100031.59;4994175;28;20276;-69
2022/09/07 01:12:22;;;;;;;2.50;1.77;;;;;;;19.86;58.62;100023.28;4994414;28;20202;-69
2022/09/07 01:14:51;;;;;;;2.70;1.63;;;;;;;19.86;58.76;100024.09;4994390;28;20202;-69
2022/09/07 01:17:28;;;;;;;3.93;2.00;;;;;;;19.87;58.31;100028.44;4994086;28;20588;-69
2022/09/07 01:20:23;;;;;;;2.50;2.30;;;;;;;19.82;58.83;100016.75;4994018;28;20186;-69
2022/09/07 01:23:38;;;;;;;2.57;1.93;;;;;;;19.82;59.44;100024.81;4994159;28;20325;-70
2022/09/07 01:26:31;;;;;;;1.90;1.80;;;;;;;19.79;59.90;100017.22;4933719;29;20224;-70
2022/09/07 01:29:06;;;;;;;2.93;1.53;;;;;;;19.74;60.19;100019.81;4993759;28;20619;-70
2022/09/07 01:31:42;;;;;;;3.23;2.00;;;;;;;19.72;60.25;100016.53;4993793;28;20192;-70
2022/09/07 01:34:14;;;;;;;3.40;1.77;;;;;;;19.66;60.34;100017.53;4994718;28;20245;-71
2022/09/07 01:36:48;;;;;;;2.43;1.70;;;;;;;19.61;60.49;100012.03;4994163;28;20253;-71
2022/09/07 01:39:16;;;;;;;1.90;1.80;;;;;;;19.58;60.35;100009.81;4993712;28;20191;-71
2022/09/07 01:41:49;;;;;;;3.97;2.07;;;;;;;19.58;59.92;100007.97;4993903;28;20206;-68
2022/09/07 01:44:21;;;;;;;5.53;2.10;;;;;;;19.53;60.46;100007.03;4993728;28;20635;-69
2022/09/07 01:46:54;;;;;;;5.07;2.27;;;;;;;19.56;60.19;100017.34;4993270;28;20273;-69
2022/09/07 01:49:25;;;;;;;2.00;1.90;;;;;;;19.57;60.10;100002.81;4993363;28;20191;-69
2022/09/07 01:51:56;;;;;;;2.47;1.90;;;;;;;19.54;60.29;100003.28;4993156;28;20201;-69
2022/09/07 01:54:29;;;;;;;2.33;2.00;;;;;;;19.53;60.40;100004.34;4993896;28;20199;-69
2022/09/07 01:57:01;;;;;;;2.27;2.17;;;;;;;19.49;60.79;99997.81;4993200;28;20651;-69
2022/09/07 01:59:34;;;;;;;4.77;2.23;;;;;;;19.51;61.13;99995.66;4992903;28;20250;-69
2022/09/07 02:02:05;;;;;;;6.83;2.40;;;;;;;19.40;61.52;99997.34;4993315;28;20190;-69
2022/09/07 02:04:36;;;;;;;3.83;2.17;;;;;;;19.44;61.40;100000.41;4993382;28;20250;-69
2022/09/07 02:07:10;;;;;;;4.40;2.20;;;;;;;19.35;61.79;99993.75;4993370;28;20291;-69
2022/09/07 02:09:42;;;;;;;4.30;2.57;;;;;;;19.29;62.54;99990.16;4993226;28;20199;-69
2022/09/07 02:12:16;;;;;;;6.43;2.50;;;;;;;19.23;63.07;100001.88;4993307;28;20192;-70
2022/09/07 02:14:48;;;;;;;5.30;2.97;;;;;;;19.17;63.26;100002.81;4993196;28;20240;-70
2022/09/07 02:17:28;;;;;;;2.47;2.27;;;;;;;19.13;63.71;100003.53;4993271;28;20189;-70
2022/09/07 02:20:02;;;;;;;2.57;2.37;;;;;;;19.07;64.04;100001.78;4993162;28;20249;-70
2022/09/07 02:22:33;;;;;;;2.30;2.10;;;;;;;18.99;64.71;100005.66;4993125;28;20213;-69
2022/09/07 02:25:03;;;;;;;5.20;2.60;;;;;;;19.00;64.52;100003.78;4992929;28;20270;-69
2022/09/07 02:27:35;;;;;;;2.73;2.53;;;;;;;18.92;64.99;100001.47;4993093;28;20695;-70
2022/09/07 02:30:04;;;;;;;3.53;2.53;;;;;;;18.89;65.72;99992.00;4992821;28;20187;-70
2022/09/07 02:32:31;;;;;;;3.37;2.70;;;;;;;18.82;65.98;99999.38;4992618;28;20198;-70
2022/09/07 02:34:58;;;;;;;3.47;2.23;;;;;;;18.69;66.24;99985.34;4992900;28;20207;-69
2022/09/07 02:37:27;;;;;;;5.63;2.90;;;;;;;18.71;66.49;99991.31;4992945;28;20630;-69
2022/09/07 02:39:54;;;;;;;6.03;3.13;;;;;;;18.65;66.95;99984.19;4992630;28;20745;-68
2022/09/07 02:42:21;;;;;;;7.10;2.47;;;;;;;18.59;67.61;99985.94;4992816;28;20196;-68
2022/09/07 02:44:48;;;;;;;5.07;2.60;;;;;;;18.56;67.94;99980.22;4992474;28;20198;-68
2022/09/07 02:47:31;;;;;;;6.30;2.80;;;;;;;18.53;68.03;99981.50;4992478;28;20241;-69
2022/09/07 02:50:20;;;;;;;4.90;3.20;;;;;;;18.43;68.06;99991.22;4992272;28;20286;-68
2022/09/07 02:53:02;;;;;;;7.43;3.20;;;;;;;18.25;68.89;99991.31;4992001;28;20655;-68
2022/09/07 02:55:43;;;;;;;6.23;3.07;;;;;;;18.13;69.38;99993.19;4992171;28;20265;-68
2022/09/07 02:58:22;;;;;;;2.83;2.63;;;;;;;18.08;69.50;99993.03;4992204;28;20613;-68
2022/09/07 03:00:57;;;;;;;7.47;3.27;;;;;;;18.00;69.78;99990.69;4992238;28;20569;-69
2022/09/07 03:03:36;;;;;;;7.60;3.60;;;;;;;17.91;70.54;99992.06;4992291;28;20186;-69
2022/09/07 03:06:07;;;;;;;5.43;3.07;;;;;;;17.79;71.09;99997.44;4992525;28;20301;-69
2022/09/07 03:08:38;;;;;;;6.33;3.57;;;;;;;17.72;71.49;99995.91;4992190;28;20199;-69
2022/09/07 03:11:05;;;;;;;5.83;2.80;;;;;;;17.69;72.07;99993.69;4991759;28;20717;-69
2022/09/07 03:13:32;;;;;;;3.93;3.27;;;;;;;17.72;72.02;99993.22;4992342;28;20225;-69
2022/09/07 03:15:59;;;;;;;8.77;3.43;;;;;;;17.71;72.30;99994.25;4992176;28;20210;-69
2022/09/07 03:18:28;;;;;;;3.63;3.37;;;;;;;17.71;73.09;99996.94;4991937;28;20725;-69
2022/09/07 03:20:55;;;;;;;7.00;3.67;;;;;;;17.60;74.29;99995.84;4992189;28;20199;-69
2022/09/07 03:23:23;;;;;;;5.87;3.30;;;;;;;17.32;74.75;99982.16;4992398;28;20205;-70
2022/09/07 03:25:50;;;;;;;7.17;3.43;;;;;;;17.36;75.12;99995.97;4991552;28;20612;-70
2022/09/07 03:28:17;;;;;;;4.17;3.77;;;;;;;17.32;76.09;99992.13;4992057;28;20693;-70
2022/09/07 03:30:45;;;;;;;4.20;3.80;;;;;;;17.25;75.99;99976.09;4992128;28;20632;-69
2022/09/07 03:33:14;;;;;;;4.43;4.07;;;;;;;17.46;75.75;99998.97;4995725;28;20205;-69
2022/09/07 03:35:42;;;;;;;4.40;3.43;;;;;;;17.54;75.50;99995.94;4995792;28;20222;-69
2022/09/07 03:38:09;;;;;;;7.23;3.60;;;;;;;17.57;75.47;99995.50;4995462;28;20200;-69
2022/09/07 03:40:36;;;;;;;23.87;4.50;;;;;;;17.59;75.18;100004.13;4996142;28;20577;-70
2022/09/07 03:43:03;;;;;;;9.90;3.93;;;;;;;17.49;76.15;100010.09;4995548;28;20199;-71
2022/09/07 03:45:29;;;;;;;4.20;3.80;;;;;;;17.48;75.59;100002.25;4995538;28;20289;-71
2022/09/07 03:47:56;;;;;;;4.87;3.73;;;;;;;17.44;76.26;100012.63;4995528;28;20725;-71
2022/09/07 03:50:23;;;;;;;5.93;4.43;;;;;;;17.40;76.12;100016.81;4995403;28;20639;-71
2022/09/07 03:52:51;;;;;;;4.33;4.00;;;;;;;17.37;76.43;100013.72;4995876;28;20205;-70
2022/09/07 03:55:18;;;;;;;4.20;3.80;;;;;;;17.35;76.54;100008.59;4995850;28;20195;-70
2022/09/07 03:57:44;;;;;;;6.93;4.10;;;;;;;17.47;76.01;100027.47;4995578;28;20201;-70
2022/09/07 04:00:12;;;;;;;6.73;4.43;;;;;;;17.49;76.19;100020.00;4995172;28;20226;-70
2022/09/07 04:02:39;;;;;;;5.67;4.10;;;;;;;17.51;76.09;100028.66;4995490;28;20846;-70
2022/09/07 04:05:06;;;;;;;6.70;4.27;;;;;;;17.54;77.57;100022.81;4995051;28;20194;-68
2022/09/07 04:07:33;;;;;;;3.93;3.63;;;;;;;17.83;75.56;100032.72;4994888;28;20728;-67
2022/09/07 04:10:01;;;;;;;4.30;3.90;;;;;;;18.14;74.10;100032.47;4995022;28;20202;-68
2022/09/07 04:12:28;;;;;;;11.50;3.97;;;;;;;18.46;72.68;100044.56;4994888;28;20254;-68
2022/09/07 04:14:55;;;;;;;10.30;4.10;;;;;;;18.64;71.61;100036.38;4995296;28;20199;-68
2022/09/07 04:17:22;;;;;;;8.03;4.30;;;;;;;18.71;71.75;100037.09;4994400;28;20195;-68
2022/09/07 04:19:48;;;;;;;6.73;4.10;;;;;;;18.80;70.90;100046.44;4993498;28;20637;-68
2022/09/07 04:22:15;;;;;;;11.07;4.30;;;;;;;18.91;71.13;100042.91;4995313;28;20198;-68
2022/09/07 04:24:42;;;;;;;8.17;4.93;;;;;;;19.21;70.23;100055.16;4992082;28;20202;-68
2022/09/07 04:27:10;;;;;;;9.90;4.10;;;;;;;19.60;68.74;100058.94;4993680;28;20246;-69
2022/09/07 04:29:37;;;;;;;15.40;4.00;;;;;;;19.95;66.88;100067.66;4993921;28;20261;-69
2022/09/07 04:32:03;;;;;;;4.40;3.77;;;;;;;20.24;65.43;100066.59;4993464;28;20661;-68
2022/09/07 04:34:30;;;;;;;6.50;3.50;;;;;;;20.72;65.47;100061.41;5001288;28;20196;-67
2022/09/07 04:36:57;;;;;;;10.57;4.60;;;;;;;21.32;63.13;100070.38;5013376;28;20212;-67
2022/09/07 04:39:24;;;;;;;24.43;8.43;;;;;;;22.04;59.89;100085.28;5012336;28;20194;-68
2022/09/07 04:41:50;;;;;;;16.57;4.70;;;;;;;22.87;57.48;100088.16;5013447;28;20614;-67
2022/09/07 04:44:18;;;;;;;10.63;4.10;;;;;;;23.63;53.67;100095.63;5005608;28;20190;-67
2022/09/07 04:46:45;;;;;;;5.87;3.93;;;;;;;24.38;51.46;100093.06;4994401;28;20293;-67
2022/09/07 04:49:12;;;;;;;4.27;3.30;;;;;;;25.07;49.06;100089.78;4994813;28;20664;-67
2022/09/07 04:51:41;;;;;;;8.43;3.17;;;;;;;25.63;46.53;100089.31;4993730;28;20209;-67
2022/09/07 04:54:09;;;;;;;4.37;4.07;;;;;;;26.04;45.68;100084.50;4994782;28;20198;-66
2022/09/07 04:56:36;;;;;;;5.77;3.33;;;;;;;26.32;44.61;100091.91;4992729;28;20658;-66
2022/09/07 04:59:03;;;;;;;5.10;3.40;;;;;;;26.42;43.41;100091.84;4993638;28;20199;-66
2022/09/07 05:01:31;;;;;;;20.83;4.33;;;;;;;26.62;43.58;100087.06;4992218;28;20199;-66
2022/09/07 05:04:00;;;;;;;6.73;3.30;;;;;;;26.79;42.18;100092.09;4990870;28;20207;-67
2022/09/07 05:06:27;;;;;;;7.93;3.20;;;;;;;27.09;41.89;100097.22;5005994;28;20305;-69
2022/09/07 05:08:54;;;;;;;5.90;3.50;;;;;;;27.34;40.35;100083.34;5008905;28;20194;-66
2022/09/07 05:11:22;;;;;;;3.87;3.57;;;;;;;27.28;40.79;100101.69;4989104;28;20672;-67
2022/09/07 05:13:49;;;;;;;6.03;3.10;;;;;;;27.68;40.15;100095.72;4991582;28;20747;-68
2022/09/07 05:16:19;;;;;;;6.40;3.37;;;;;;;28.10;38.74;100100.38;4988794;28;20757;-67
2022/09/07 05:18:49;;;;;;;6.27;3.33;;;;;;;28.26;38.25;100096.28;4991643;28;20694;-67
2022/09/07 05:21:18;;;;;;;4.87;3.53;;;;;;;28.35;38.00;100094.50;4971337;28;20196;-68
2022/09/07 05:23:49;;;;;;;6.97;3.23;;;;;;;28.21;38.19;100110.00;4982771;28;20736;-66
2022/09/07 05:26:15;;;;;;;7.37;4.00;;;;;;;28.42;37.50;100098.50;4994731;28;20648;-67
2022/09/07 05:28:43;;;;;;;4.90;3.63;;;;;;;28.25;37.71;100092.75;4994254;28;20234;-68
2022/09/07 05:31:11;;;;;;;6.47;3.83;;;;;;;28.23;37.99;100096.88;4992644;28;20238;-66
2022/09/07 05:33:38;;;;;;;7.30;3.67;;;;;;;28.41;38.19;100098.81;4993909;28;20253;-66
2022/09/07 05:36:07;;;;;;;9.60;3.13;;;;;;;28.91;36.96;100100.69;4993859;28;20694;-68
2022/09/07 05:38:35;;;;;;;6.97;3.33;;;;;;;28.87;36.89;100107.88;4993746;28;20194;-67
2022/09/07 05:41:11;;;;;;;6.57;3.10;;;;;;;29.09;35.82;100106.13;4993786;28;20245;-66
2022/09/07 05:43:37;;;;;;;9.60;2.50;;;;;;;29.46;35.67;100099.63;4993400;28;20681;-69
2022/09/07 05:46:04;;;;;;;7.77;3.53;;;;;;;29.52;35.21;100103.88;4993542;28;20269;-68
2022/09/07 05:48:31;;;;;;;15.17;3.67;;;;;;;29.53;35.59;100100.03;4992865;28;20627;-67
2022/09/07 05:50:58;;;;;;;5.30;3.27;;;;;;;29.55;34.81;100103.28;4993603;28;20198;-66
2022/09/07 05:53:26;;;;;;;9.53;3.40;;;;;;;29.70;35.16;100094.78;4993214;28;20202;-67
2022/09/07 05:55:53;;;;;;;3.10;2.80;;;;;;;30.04;34.87;100097.84;4993180;28;20195;-67
2022/09/07 05:58:19;;;;;;;4.27;3.53;;;;;;;30.15;33.18;100101.19;4993346;28;20638;-67
2022/09/07 06:00:46;;;;;;;5.30;3.20;;;;;;;29.93;34.13;100096.44;4993090;28;20206;-64
2022/09/07 06:03:13;;;;;;;6.83;3.17;;;;;;;29.88;32.99;100080.13;4992435;28;20194;-63
2022/09/07 06:05:40;;;;;;;4.57;3.07;;;;;;;29.65;33.50;100086.69;4992873;28;20257;-64
2022/09/07 06:08:06;;;;;;;5.40;3.03;;;;;;;29.91;33.09;100095.94;4991330;28;20280;-66
2022/09/07 06:10:38;;;;;;;10.23;3.27;;;;;;;29.72;32.97;100092.53;4991564;28;20190;-66
2022/09/07 06:13:05;;;;;;;5.57;2.83;;;;;;;29.66;33.25;100093.75;4989305;28;20781;-65
2022/09/07 06:15:33;;;;;;;4.50;2.67;;;;;;;29.48;33.40;100086.44;4992932;28;20198;-65
2022/09/07 06:18:00;;;;;;;4.17;2.80;;;;;;;29.37;33.50;100089.69;4991326;28;20242;-66
2022/09/07 06:20:26;;;;;;;6.90;2.70;;;;;;;29.38;34.20;100085.84;4989300;28;20202;-65
2022/09/07 06:22:53;;;;;;;7.87;2.83;;;;;;;29.42;33.63;100087.66;4992964;28;20190;-65
2022/09/07 06:25:20;;;;;;;8.30;2.53;;;;;;;29.33;33.29;100084.03;4992714;28;20674;-64
2022/09/07 06:27:49;;;;;;;17.90;3.03;;;;;;;29.31;33.69;100071.75;4992415;28;20230;-66
2022/09/07 06:30:16;;;;;;;5.87;2.80;;;;;;;29.39;33.83;100082.78;4992968;28;20198;-65
2022/09/07 06:32:43;;;;;;;4.17;2.67;;;;;;;29.44;33.67;100079.97;4992622;28;20199;-65
2022/09/07 06:35:11;;;;;;;5.27;2.70;;;;;;;29.47;33.75;100079.34;4993084;28;20238;-65
2022/09/07 06:37:37;;;;;;;8.33;3.40;;;;;;;29.55;33.37;100078.63;4992793;28;20285;-65
2022/09/07 06:40:06;;;;;;;4.10;2.40;;;;;;;29.29;33.93;100070.13;4992485;28;20567;-64
2022/09/07 06:42:33;;;;;;;6.07;2.90;;;;;;;29.54;33.98;100079.75;4992558;28;20198;-65
2022/09/07 06:45:01;;;;;;;4.43;2.53;;;;;;;29.75;34.25;100086.44;4990651;28;20216;-65
2022/09/07 06:47:28;;;;;;;4.90;2.43;;;;;;;29.93;33.36;100084.69;4992252;28;20218;-66
2022/09/07 06:49:54;;;;;;;5.33;2.20;;;;;;;29.93;33.32;100088.22;4992737;28;20222;-66
2022/09/07 06:52:21;;;;;;;7.77;2.63;;;;;;;29.97;33.15;100091.16;4992598;28;20207;-66
2022/09/07 06:54:48;;;;;;;2.57;2.10;;;;;;;29.91;33.95;100087.72;4992389;28;20195;-66
2022/09/07 06:57:14;;;;;;;7.57;3.03;;;;;;;29.98;33.23;100076.34;4993259;28;20206;-66
2022/09/07 06:59:41;;;;;;;4.43;2.07;;;;;;;30.14;32.78;100099.56;4992448;28;20253;-66
2022/09/07 07:02:12;;;;;;;3.57;2.33;;;;;;;30.04;33.27;100092.34;4992707;28;20201;-66
2022/09/07 07:04:38;;;;;;;9.77;2.60;;;;;;;30.28;32.82;100095.66;4992809;28;20616;-66
2022/09/07 07:07:05;;;;;;;6.67;2.37;;;;;;;30.41;33.01;100094.78;4991755;28;20272;-66
2022/09/07 07:09:32;;;;;;;2.83;2.20;;;;;;;30.48;32.48;100106.13;4989236;28;20277;-66
2022/09/07 07:11:59;;;;;;;3.23;2.43;;;;;;;30.35;33.00;100106.19;4991908;28;20643;-66
2022/09/07 07:14:25;;;;;;;2.37;1.97;;;;;;;30.38;33.57;100105.56;4992603;28;20202;-63
2022/09/07 07:16:52;;;;;;;3.90;2.37;;;;;;;30.41;32.32;100094.78;4992492;28;20210;-65
2022/09/07 07:19:20;;;;;;;2.93;2.20;;;;;;;30.40;32.88;100095.91;4991474;28;20194;-65
2022/09/07 07:21:47;;;;;;;4.93;2.53;;;;;;;30.05;33.29;100104.94;4992565;28;20245;-66
2022/09/07 07:24:14;;;;;;;4.97;2.70;;;;;;;30.15;32.86;100101.19;4991362;28;20253;-65
2022/09/07 07:26:42;;;;;;;2.40;2.20;;;;;;;29.82;32.49;100106.00;4992226;28;20230;-65
2022/09/07 07:29:09;;;;;;;4.17;2.67;;;;;;;30.01;32.35;100103.94;4992218;28;20599;-65
2022/09/07 07:31:36;;;;;;;3.53;2.40;;;;;;;30.10;32.24;100099.34;4992493;28;20195;-66
2022/09/07 07:34:02;;;;;;;5.73;2.30;;;;;;;30.28;32.49;100103.88;4991357;28;20582;-65
2022/09/07 07:36:31;;;;;;;2.50;2.40;;;;;;;30.37;32.48;100093.78;4992458;28;20281;-65
2022/09/07 07:38:57;;;;;;;2.40;2.30;;;;;;;30.25;32.51;100099.00;4991310;28;20227;-65
2022/09/07 07:41:28;;;;;;;12.33;2.93;;;;;;;30.37;32.45;100096.53;4992382;28;20190;-66
2022/09/07 07:43:58;;;;;;;3.10;2.50;;;;;;;30.35;31.86;100107.00;4991330;28;20191;-65
2022/09/07 07:46:27;;;;;;;14.83;3.30;;;;;;;30.24;32.25;100100.13;4992016;28;20205;-65
2022/09/07 07:48:54;;;;;;;5.47;2.63;;;;;;;30.20;32.68;100099.13;4991530;28;20246;-65
2022/09/07 07:51:21;;;;;;;2.80;2.00;;;;;;;30.31;33.57;100100.53;4992175;28;20198;-65
2022/09/07 07:53:49;;;;;;;3.57;2.30;;;;;;;30.40;32.53;100108.78;4991273;28;20202;-64
2022/09/07 07:56:16;;;;;;;6.50;2.90;;;;;;;30.50;32.77;100106.63;4992166;28;20257;-65
2022/09/07 07:58:46;;;;;;;6.33;2.77;;;;;;;30.59;32.58;100109.44;4991756;28;20194;-65
2022/09/07 08:01:15;;;;;;;4.63;2.73;;;;;;;30.78;32.02;100110.88;4991404;28;20199;-65
2022/09/07 08:03:43;;;;;;;6.27;2.90;;;;;;;30.85;32.38;100104.94;4991863;28;20274;-64
2022/09/07 08:06:12;;;;;;;3.50;2.50;;;;;;;30.91;32.54;100093.50;4991343;28;20285;-64
2022/09/07 08:08:39;;;;;;;2.83;2.57;;;;;;;31.07;31.44;100105.72;4991914;28;20677;-65
2022/09/07 08:11:08;;;;;;;2.40;2.30;;;;;;;31.06;31.20;100095.84;4991617;28;20326;-65
2022/09/07 08:13:36;;;;;;;3.93;2.63;;;;;;;31.04;30.98;100092.63;4992281;28;20203;-65
2022/09/07 08:16:04;;;;;;;4.90;2.57;;;;;;;30.96;31.17;100093.41;4990934;28;20737;-65
2022/09/07 08:18:32;;;;;;;3.87;2.63;;;;;;;30.53;31.28;100086.00;4995679;28;20673;-65
2022/09/07 08:21:01;;;;;;;3.23;2.63;;;;;;;30.70;32.05;100081.44;4992499;28;20256;-67
2022/09/07 08:23:28;;;;;;;3.23;2.90;;;;;;;30.84;31.46;100090.44;4994980;28;20677;-66
2022/09/07 08:25:57;;;;;;;4.37;2.73;;;;;;;31.04;31.10;100092.63;4995163;28;20285;-65
2022/09/07 08:28:26;;;;;;;5.90;3.07;;;;;;;30.93;31.00;100084.97;4994070;28;20362;-65
2022/09/07 08:30:52;;;;;;;4.87;2.70;;;;;;;30.58;31.46;100083.94;4995188;28;20261;-65
2022/09/07 08:33:19;;;;;;;3.07;2.80;;;;;;;30.62;31.84;100084.13;4994331;28;20666;-65
2022/09/07 08:35:59;;;;;;;3.67;3.17;;;;;;;30.18;32.08;100070.41;4992897;28;20190;-65
2022/09/07 08:38:28;;;;;;;7.23;3.40;;;;;;;29.81;32.44;100079.75;4993288;28;20214;-65
2022/09/07 08:40:55;;;;;;;3.37;3.07;;;;;;;29.19;33.57;100070.34;4993900;28;20202;-65
2022/09/07 08:43:47;;;;;;;5.47;3.57;;;;;;;29.01;34.21;100063.03;4994796;28;20210;-65
2022/09/07 08:46:26;;;;;;;7.33;3.03;;;;;;;29.35;34.16;100065.34;4994920;28;20662;-65
2022/09/07 08:48:55;;;;;;;4.63;3.20;;;;;;;29.67;33.10;100061.72;4993101;28;20253;-65
2022/09/07 08:51:32;;;;;;;7.40;3.10;;;;;;;29.88;33.35;100058.19;4994710;28;20657;-65
2022/09/07 08:54:00;;;;;;;5.20;2.80;;;;;;;30.02;32.13;100063.63;4993884;28;20194;-65
2022/09/07 08:56:31;;;;;;;3.73;2.67;;;;;;;29.68;33.69;100055.91;4994599;28;20261;-65
2022/09/07 08:59:01;;;;;;;2.87;2.60;;;;;;;29.74;33.26;100041.00;4994192;28;20277;-64
2022/09/07 09:01:30;;;;;;;4.67;2.80;;;;;;;30.02;32.53;100048.03;4993855;28;20210;-65
2022/09/07 09:03:57;;;;;;;4.53;2.70;;;;;;;29.74;32.41;100053.88;4993600;28;20628;-66
2022/09/07 09:06:30;;;;;;;4.93;3.07;;;;;;;29.94;32.02;100046.00;4994250;28;20617;-66
2022/09/07 09:09:09;;;;;;;2.67;2.50;;;;;;;29.86;32.25;100037.72;4993621;28;20269;-67
2022/09/07 09:11:48;;;;;;;3.20;2.80;;;;;;;30.14;32.15;100033.78;4994302;28;20187;-67
2022/09/07 09:14:26;;;;;;;3.10;2.73;;;;;;;30.27;32.64;100036.47;4994205;28;20206;-66
2022/09/07 09:16:57;;;;;;;4.23;2.40;;;;;;;30.26;32.43;100036.78;4995284;28;20269;-66
2022/09/07 09:19:50;;;;;;;5.03;2.73;;;;;;;30.32;32.23;100025.38;4990527;28;20184;-66
2022/09/07 09:22:19;;;;;;;4.53;2.50;;;;;;;30.23;32.37;100023.69;4994294;28;20202;-66
2022/09/07 09:24:47;;;;;;;3.97;2.50;;;;;;;30.28;32.61;100027.13;4993661;28;20195;-67
2022/09/07 09:27:15;;;;;;;2.27;2.07;;;;;;;29.89;32.02;100009.69;4993508;28;20264;-66
2022/09/07 09:29:43;;;;;;;2.17;2.07;;;;;;;29.86;31.86;100008.38;4992439;28;20202;-67
2022/09/07 09:32:34;;;;;;;5.83;2.43;;;;;;;29.86;31.61;100021.28;4993508;28;20253;-72
2022/09/07 09:35:04;;;;;;;3.07;2.50;;;;;;;29.96;30.07;100021.84;4992912;28;20198;-66
2022/09/07 09:37:36;;;;;;;3.50;2.10;;;;;;;29.88;29.86;100000.66;4992896;28;20735;-73
2022/09/07 09:40:04;;;;;;;3.07;1.93;;;;;;;29.66;29.49;100021.72;4991186;28;20269;-73
2022/09/07 09:42:34;;;;;;;2.70;2.40;;;;;;;29.56;30.81;100021.94;4991841;28;20661;-73
2022/09/07 09:45:13;;;;;;;3.50;1.80;;;;;;;29.67;30.56;100024.16;4992643;28;20209;-73
2022/09/07 09:47:40;;;;;;;2.77;2.00;;;;;;;29.88;30.19;100019.84;4973978;28;20211;-73
2022/09/07 09:50:18;;;;;;;2.37;2.27;;;;;;;29.88;30.21;100008.88;4981807;28;20278;-74
2022/09/07 09:52:46;;;;;;;2.73;2.23;;;;;;;29.91;30.11;100019.22;4993214;28;20186;-73
2022/09/07 09:55:25;;;;;;;3.47;2.27;;;;;;;29.58;31.28;99998.63;4991564;28;20258;-74
2022/09/07 09:57:57;;;;;;;2.00;1.90;;;;;;;29.67;30.56;99996.00;4992276;28;20278;-75
2022/09/07 10:00:26;;;;;;;2.10;1.93;;;;;;;29.69;30.47;99991.81;4990537;28;20202;-72
2022/09/07 10:03:02;;;;;;;4.33;2.50;;;;;;;29.58;30.95;99987.69;4991507;28;20195;-72
2022/09/07 10:05:33;;;;;;;2.53;2.20;;;;;;;29.75;31.07;99982.34;4985273;28;20194;-74
2022/09/07 10:08:00;;;;;;;5.37;3.20;;;;;;;29.88;31.26;99978.75;4991092;28;20277;-73
2022/09/07 10:10:29;;;;;;;2.50;2.10;;;;;;;29.82;31.36;99979.16;4992365;28;20202;-76
2022/09/07 10:12:56;;;;;;;3.20;2.90;;;;;;;29.69;31.53;99978.13;4992948;28;20662;-74
2022/09/07 10:15:30;;;;;;;2.60;2.40;;;;;;;29.65;31.26;99970.81;4992050;28;20206;-74
2022/09/07 10:17:58;;;;;;;2.07;1.97;;;;;;;29.95;30.58;99965.44;4993137;28;20187;-71
2022/09/07 10:20:34;;;;;;;2.37;2.17;;;;;;;30.04;30.75;99958.06;4984654;28;20247;-78
2022/09/07 10:23:02;;;;;;;3.27;2.43;;;;;;;29.99;31.05;99955.47;4991147;28;20195;-72
2022/09/07 10:25:31;;;;;;;2.70;2.50;;;;;;;29.99;31.23;99949.97;4992006;28;20278;-74
2022/09/07 10:28:06;;;;;;;2.70;2.30;;;;;;;29.90;31.62;99940.06;4991938;28;20698;-79
2022/09/07 10:30:42;;;;;;;3.13;2.30;;;;;;;29.86;31.19;99934.41;4993113;28;20201;-77
2022/09/07 10:33:16;;;;;;;3.67;2.20;;;;;;;29.96;31.16;99938.84;4991880;28;20198;-78
2022/09/07 10:35:52;;;;;;;4.13;1.70;;;;;;;29.72;31.35;99932.88;4993240;28;20261;-79
2022/09/07 10:38:21;;;;;;;3.33;2.00;;;;;;;29.64;31.01;99926.19;4992274;28;20202;-73
2022/09/07 10:40:56;;;;;;;3.47;2.03;;;;;;;29.60;30.99;99925.19;4991933;28;20198;-73
2022/09/07 10:43:39;;;;;;;2.80;1.93;;;;;;;29.62;31.27;99917.47;4992267;28;20257;-72
2022/09/07 10:46:31;;;;;;;3.67;2.30;;;;;;;29.74;31.22;99915.00;4992516;28;20202;-72
2022/09/07 10:49:11;;;;;;;2.50;2.00;;;;;;;29.90;30.65;99929.94;4989329;28;20226;-73
2022/09/07 10:51:48;;;;;;;2.37;2.20;;;;;;;29.99;29.82;99933.53;4991161;28;20226;-68
2022/09/07 10:54:24;;;;;;;1.93;1.83;;;;;;;29.99;29.68;99911.63;4986933;28;20277;-71
2022/09/07 10:57:06;;;;;;;2.13;2.00;;;;;;;30.04;29.65;99916.97;4990658;28;20198;-72
2022/09/07 10:59:47;;;;;;;3.20;2.27;;;;;;;29.70;30.41;99919.47;4989773;28;20203;-69
2022/09/07 11:02:23;;;;;;;3.27;2.13;;;;;;;29.79;30.21;99911.31;4990612;28;20198;-68
2022/09/07 11:05:01;;;;;;;3.67;2.20;;;;;;;29.21;31.10;99914.03;4991347;28;20655;-68
2022/09/07 11:07:52;;;;;;;2.90;2.03;;;;;;;29.38;30.57;99911.44;4992547;28;20257;-73
2022/09/07 11:10:27;;;;;;;2.10;1.90;;;;;;;29.44;30.85;99904.75;4991393;28;20191;-69
2022/09/07 11:12:58;;;;;;;2.00;1.90;;;;;;;28.96;31.59;99904.41;4992599;28;20639;-70
2022/09/07 11:15:29;;;;;;;4.43;2.40;;;;;;;29.36;36.69;99890.97;4991107;28;20241;-66
2022/09/07 11:18:02;;;;;;;3.40;1.73;;;;;;;29.51;31.76;99901.56;4992307;28;20191;-63
2022/09/07 11:20:32;;;;;;;2.80;2.00;;;;;;;29.56;31.73;99896.75;4988502;28;20626;-63
2022/09/07 11:23:11;;;;;;;2.50;1.90;;;;;;;29.37;31.11;99898.88;4992364;28;20199;-64
2022/09/07 11:25:45;;;;;;;5.53;2.10;;;;;;;29.43;30.91;99880.41;4991515;28;20611;-64
2022/09/07 11:28:17;;;;;;;2.43;2.33;;;;;;;29.44;31.52;99884.75;4991386;28;20792;-63
2022/09/07 11:30:47;;;;;;;4.83;2.47;;;;;;;29.62;31.20;99887.34;4992322;28;20193;-64
2022/09/07 11:33:19;;;;;;;4.30;1.90;;;;;;;29.59;31.79;99882.50;4989876;28;20257;-63
2022/09/07 11:35:51;;;;;;;3.17;2.30;;;;;;;29.59;31.00;99889.91;4992237;28;20187;-62
2022/09/07 11:38:25;;;;;;;2.10;2.00;;;;;;;29.38;30.80;99875.84;4991589;28;20195;-63
2022/09/07 11:41:13;;;;;;;2.17;2.07;;;;;;;29.23;31.33;99873.47;4992098;28;20183;-65